createdAt,value
2019-02-23T00:00:55.102Z,68.80
2019-02-23T00:03:23.422Z,68.60
2019-02-23T00:05:51.638Z,69.30
2019-02-23T00:08:19.797Z,69.50
2019-02-23T00:10:48.006Z,69.60
2019-02-23T00:13:16.267Z,70.60
2019-02-23T00:15:44.750Z,70.00
2019-02-23T00:18:12.902Z,70.60
2019-02-23T00:20:41.109Z,70.70
2019-02-23T00:23:09.710Z,70.90
2019-02-23T00:25:37.933Z,70.90
2019-02-23T00:28:06.538Z,71.20
2019-02-23T00:30:34.650Z,71.10
2019-02-23T00:33:02.822Z,71.10
2019-02-23T00:35:30.914Z,71.40
2019-02-23T00:37:59.006Z,71.60
2019-02-23T00:40:27.534Z,71.80
2019-02-23T00:42:55.644Z,72.40
2019-02-23T00:45:23.821Z,73.00
2019-02-23T00:47:51.932Z,73.80
2019-02-23T00:50:20.533Z,74.00
2019-02-23T00:52:48.754Z,74.40
2019-02-23T00:55:16.921Z,74.60
2019-02-23T00:57:45.029Z,74.90
2019-02-23T01:00:13.563Z,75.40
2019-02-23T01:02:41.705Z,76.30
2019-02-23T01:05:12.191Z,76.50
2019-02-23T01:07:40.485Z,77.00
2019-02-23T01:10:09.677Z,76.90
2019-02-23T01:12:38.140Z,76.60
2019-02-23T01:15:07.858Z,76.20
2019-02-23T01:17:36.067Z,75.90
2019-02-23T01:20:04.765Z,75.90
2019-02-23T01:22:33.426Z,76.00
2019-02-23T01:25:01.803Z,76.70
2019-02-23T01:27:29.906Z,77.20
2019-02-23T01:29:58.058Z,77.80
2019-02-23T01:32:26.167Z,78.00
2019-02-23T01:34:54.409Z,78.00
2019-02-23T01:37:22.727Z,77.90
2019-02-23T01:39:50.894Z,78.20
2019-02-23T01:42:19.448Z,78.40
2019-02-23T01:44:47.607Z,78.80
2019-02-23T01:47:15.829Z,79.10
2019-02-23T01:49:43.968Z,79.00
2019-02-23T01:52:12.078Z,78.90
2019-02-23T01:54:40.327Z,78.70
2019-02-23T01:57:08.439Z,78.60
2019-02-23T01:59:36.662Z,78.70
2019-02-23T02:02:04.873Z,78.80
2019-02-23T02:04:33.082Z,79.10
2019-02-23T02:07:01.187Z,79.30
2019-02-23T02:09:29.441Z,79.70
2019-02-23T02:11:57.554Z,79.70
2019-02-23T02:14:25.929Z,79.60
2019-02-23T02:16:54.335Z,79.70
2019-02-23T02:19:22.486Z,79.60
2019-02-23T02:21:51.161Z,79.60
2019-02-23T02:24:19.402Z,79.70
2019-02-23T02:26:47.498Z,79.60
2019-02-23T02:29:16.039Z,79.60
2019-02-23T02:31:44.198Z,79.40
2019-02-23T02:34:15.011Z,79.50
2019-02-23T02:36:43.643Z,79.50
2019-02-23T02:39:13.083Z,79.60
2019-02-23T02:41:41.440Z,79.80
2019-02-23T02:44:09.642Z,79.70
2019-02-23T02:46:37.901Z,79.80
2019-02-23T02:49:06.218Z,79.70
2019-02-23T02:51:34.462Z,79.80
2019-02-23T02:54:02.703Z,79.80
2019-02-23T02:56:30.959Z,79.70
2019-02-23T02:58:59.177Z,78.80
2019-02-23T03:01:27.425Z,79.60
2019-02-23T03:03:55.606Z,79.80
2019-02-23T03:06:23.806Z,79.80
2019-02-23T03:08:52.015Z,80.50
2019-02-23T03:11:20.186Z,80.40
2019-02-23T03:13:48.743Z,80.50
2019-02-23T03:16:17.723Z,80.80
2019-02-23T03:18:46.818Z,80.90
2019-02-23T03:21:14.969Z,81.00
2019-02-23T03:23:43.086Z,81.10
2019-02-23T03:26:11.313Z,81.20
2019-02-23T03:28:39.558Z,80.90
2019-02-23T03:31:07.723Z,81.00
2019-02-23T03:33:35.953Z,80.90
2019-02-23T03:36:04.939Z,81.10
2019-02-23T03:38:33.058Z,81.00
2019-02-23T03:41:01.204Z,81.00
2019-02-23T03:43:29.413Z,81.00
2019-02-23T03:45:57.561Z,81.00
2019-02-23T03:48:25.839Z,81.40
2019-02-23T03:50:53.992Z,81.30
2019-02-23T03:53:22.194Z,81.60
2019-02-23T03:55:50.802Z,81.50
2019-02-23T03:58:19.207Z,81.60
2019-02-23T04:00:47.893Z,82.10
2019-02-23T04:03:16.059Z,82.60
2019-02-23T04:05:44.273Z,83.80
2019-02-23T04:08:12.480Z,83.40
2019-02-23T04:10:41.043Z,84.20
2019-02-23T04:13:09.254Z,84.30
2019-02-23T04:15:37.362Z,84.30
2019-02-23T04:18:05.626Z,84.30
2019-02-23T04:20:33.742Z,84.20
2019-02-23T04:23:01.894Z,85.40
2019-02-23T04:25:30.557Z,85.20
2019-02-23T04:27:59.071Z,85.90
2019-02-23T04:30:27.177Z,86.00
2019-02-23T04:32:55.424Z,86.70
2019-02-23T04:35:23.609Z,86.90
2019-02-23T04:37:51.851Z,87.00
2019-02-23T04:40:19.983Z,87.70
2019-02-23T04:42:48.130Z,88.80
2019-02-23T04:45:16.496Z,88.70
2019-02-23T04:47:44.647Z,89.00
2019-02-23T04:50:12.968Z,89.10
2019-02-23T04:52:41.138Z,89.10
2019-02-23T04:55:09.333Z,89.30
2019-02-23T04:57:37.501Z,89.50
2019-02-23T05:00:06.831Z,89.80
2019-02-23T05:02:35.002Z,90.10
2019-02-23T05:05:03.368Z,90.10
2019-02-23T05:07:31.623Z,90.10
2019-02-23T05:10:00.413Z,90.10
2019-02-23T05:12:28.551Z,90.10
2019-02-23T05:14:56.668Z,90.20
2019-02-23T05:17:24.824Z,90.20
2019-02-23T05:19:52.951Z,90.30
2019-02-23T05:22:21.109Z,90.60
2019-02-23T05:24:49.224Z,90.80
2019-02-23T05:27:17.478Z,91.00
2019-02-23T05:29:45.586Z,91.00
2019-02-23T05:32:13.747Z,91.00
2019-02-23T05:34:41.852Z,91.10
2019-02-23T05:37:10.461Z,91.10
2019-02-23T05:39:38.660Z,91.40
2019-02-23T05:42:06.913Z,91.60
2019-02-23T05:44:35.015Z,91.70
2019-02-23T05:47:04.168Z,91.80
2019-02-23T05:49:32.267Z,91.60
2019-02-23T05:52:00.411Z,92.10
2019-02-23T05:54:28.630Z,92.40
2019-02-23T05:56:56.891Z,92.80
2019-02-23T05:59:25.105Z,93.10
2019-02-23T06:01:53.211Z,93.30
2019-02-23T06:04:21.710Z,93.30
2019-02-23T06:06:49.916Z,93.50
2019-02-23T06:09:18.563Z,93.90
2019-02-23T06:11:46.673Z,94.00
2019-02-23T06:14:14.828Z,94.10
2019-02-23T06:16:42.946Z,94.00
2019-02-23T06:19:11.107Z,94.10
2019-02-23T06:21:52.327Z,94.20
2019-02-23T06:24:09.271Z,94.30
2019-02-23T06:26:37.369Z,94.40
2019-02-23T06:29:05.522Z,94.40
2019-02-23T06:31:33.631Z,94.40
2019-02-23T06:34:12.515Z,94.40
2019-02-23T06:36:32.571Z,94.70
2019-02-23T06:39:01.086Z,94.70
2019-02-23T06:41:29.187Z,94.80
2019-02-23T06:43:57.346Z,94.40
2019-02-23T06:46:25.445Z,94.50
2019-02-23T06:48:53.597Z,94.40
2019-02-23T06:51:21.807Z,94.30
2019-02-23T06:53:49.962Z,94.40
2019-02-23T06:56:18.168Z,94.80
2019-02-23T06:58:46.327Z,94.90
2019-02-23T07:01:14.430Z,95.00
2019-02-23T07:03:42.607Z,94.90
2019-02-23T07:06:11.229Z,95.20
2019-02-23T07:08:39.890Z,95.40
2019-02-23T07:11:07.974Z,95.50
2019-02-23T07:13:36.121Z,95.60
2019-02-23T07:16:04.730Z,95.70
2019-02-23T07:18:32.870Z,95.70
2019-02-23T07:21:01.432Z,95.40
2019-02-23T07:23:29.570Z,95.20
2019-02-23T07:25:58.234Z,95.30
2019-02-23T07:28:26.422Z,95.00
2019-02-23T07:30:54.605Z,94.90
2019-02-23T07:33:32.389Z,94.70
2019-02-23T07:35:53.041Z,94.60
2019-02-23T07:38:21.186Z,94.80
2019-02-23T07:40:49.271Z,94.60
2019-02-23T07:43:17.929Z,94.20
2019-02-23T07:45:46.118Z,94.30
2019-02-23T07:48:14.249Z,94.20
2019-02-23T07:50:42.334Z,93.90
2019-02-23T07:53:10.555Z,93.90
2019-02-23T07:55:39.244Z,93.80
2019-02-23T07:58:07.325Z,93.60
2019-02-23T08:00:35.562Z,93.50
2019-02-23T08:03:04.153Z,92.70
2019-02-23T08:05:32.405Z,92.80
2019-02-23T08:08:00.541Z,92.70
2019-02-23T08:10:28.684Z,92.40
2019-02-23T08:12:56.887Z,92.20
2019-02-23T08:15:25.126Z,92.40
2019-02-23T08:17:53.214Z,92.70
2019-02-23T08:20:21.458Z,91.60
2019-02-23T08:22:49.554Z,90.20
2019-02-23T08:25:17.750Z,89.90
2019-02-23T08:27:45.942Z,89.50
2019-02-23T08:30:14.537Z,88.10
2019-02-23T08:32:42.624Z,87.40
2019-02-23T08:35:11.929Z,86.20
2019-02-23T08:37:40.031Z,83.70
2019-02-23T08:40:09.124Z,83.50
2019-02-23T08:42:37.236Z,82.60
2019-02-23T08:45:06.393Z,82.70
2019-02-23T08:47:34.491Z,82.10
2019-02-23T08:50:02.639Z,82.00
2019-02-23T08:52:31.315Z,80.60
2019-02-23T08:54:59.765Z,80.20
2019-02-23T08:57:27.846Z,80.40
2019-02-23T09:00:03.193Z,79.10
2019-02-23T09:02:32.108Z,80.40
2019-02-23T09:05:01.444Z,79.80
2019-02-23T09:07:30.058Z,79.00
2019-02-23T09:09:58.910Z,78.90
2019-02-23T09:12:27.852Z,78.50
2019-02-23T09:14:58.374Z,78.50
2019-02-23T09:17:26.731Z,78.90
2019-02-23T09:19:55.294Z,78.90
2019-02-23T09:22:23.791Z,77.90
2019-02-23T09:24:53.009Z,78.10
2019-02-23T09:27:21.845Z,77.60
2019-02-23T09:29:50.231Z,77.10
2019-02-23T09:32:18.604Z,77.60
2019-02-23T09:34:46.952Z,77.80
2019-02-23T09:37:15.353Z,76.80
2019-02-23T09:39:45.226Z,77.20
2019-02-23T09:42:13.831Z,76.10
2019-02-23T09:44:42.698Z,75.90
2019-02-23T09:47:10.921Z,74.80
2019-02-23T09:49:39.106Z,74.80
2019-02-23T09:52:08.081Z,74.90
2019-02-23T09:54:36.817Z,75.30
2019-02-23T09:57:05.021Z,74.80
2019-02-23T09:59:34.338Z,73.90
2019-02-23T10:02:03.146Z,73.50
2019-02-23T10:04:31.416Z,75.10
2019-02-23T10:07:01.406Z,73.20
2019-02-23T10:09:29.878Z,73.60
2019-02-23T10:11:58.723Z,72.80
2019-02-23T10:14:27.149Z,70.90
2019-02-23T10:16:55.994Z,71.90
2019-02-23T10:19:24.997Z,70.90
2019-02-23T10:21:53.919Z,71.50
2019-02-23T10:24:22.634Z,71.80
2019-02-23T10:26:50.922Z,71.70
2019-02-23T10:29:19.132Z,72.00
2019-02-23T10:31:47.757Z,71.10
2019-02-23T10:34:15.877Z,70.80
2019-02-23T10:36:44.293Z,70.10
2019-02-23T10:39:12.514Z,70.30
2019-02-23T10:41:40.736Z,70.50
2019-02-23T10:44:08.961Z,68.90
2019-02-23T10:46:37.197Z,68.60
2019-02-23T10:49:05.640Z,69.10
2019-02-23T10:51:34.010Z,69.40
2019-02-23T10:54:02.409Z,67.70
2019-02-23T10:56:31.189Z,67.60
2019-02-23T10:58:59.634Z,66.80
2019-02-23T11:01:27.908Z,65.40
2019-02-23T11:03:56.307Z,65.60
2019-02-23T11:06:25.267Z,64.40
2019-02-23T11:09:02.731Z,64.40
2019-02-23T11:11:31.021Z,63.30
2019-02-23T11:13:59.610Z,64.20
2019-02-23T11:16:27.854Z,64.60
2019-02-23T11:18:57.456Z,62.60
2019-02-23T11:21:27.773Z,64.10
2019-02-23T11:23:56.112Z,61.50
2019-02-23T11:26:24.720Z,60.60
2019-02-23T11:28:53.187Z,60.20
2019-02-23T11:31:21.611Z,61.20
2019-02-23T11:33:49.826Z,61.20
2019-02-23T11:36:17.994Z,59.80
2019-02-23T11:38:46.110Z,59.90
2019-02-23T11:41:32.439Z,59.50
2019-02-23T11:44:00.574Z,59.00
2019-02-23T11:46:28.728Z,58.40
2019-02-23T11:48:56.838Z,58.70
2019-02-23T11:51:25.005Z,58.20
2019-02-23T11:53:55.262Z,58.00
2019-02-23T11:56:23.189Z,57.30
2019-02-23T11:58:51.304Z,56.90
2019-02-23T12:01:19.480Z,57.00
2019-02-23T12:03:47.824Z,56.30
2019-02-23T12:06:16.529Z,56.60
2019-02-23T12:08:44.713Z,56.30
2019-02-23T12:11:12.854Z,56.20
2019-02-23T12:13:41.051Z,56.20
2019-02-23T12:16:09.174Z,56.00
2019-02-23T12:18:37.445Z,55.50
2019-02-23T12:21:06.081Z,55.80
2019-02-23T12:23:34.708Z,54.90
2019-02-23T12:26:02.921Z,55.30
2019-02-23T12:28:31.078Z,54.70
2019-02-23T12:30:59.170Z,54.90
2019-02-23T12:33:27.342Z,55.90
2019-02-23T12:35:55.451Z,55.70
2019-02-23T12:38:23.640Z,54.30
2019-02-23T12:40:51.732Z,54.50
2019-02-23T12:43:20.019Z,53.70
2019-02-23T12:45:48.556Z,53.70
2019-02-23T12:48:16.711Z,54.10
2019-02-23T12:50:45.213Z,53.10
2019-02-23T12:53:13.384Z,52.80
2019-02-23T12:55:41.591Z,52.40
2019-02-23T12:58:09.922Z,53.40
2019-02-23T13:00:38.039Z,52.60
2019-02-23T13:03:06.421Z,53.70
2019-02-23T13:05:34.654Z,53.00
2019-02-23T13:08:02.982Z,53.10
2019-02-23T13:10:31.110Z,52.40
2019-02-23T13:13:13.884Z,52.30
2019-02-23T13:15:56.436Z,53.40
2019-02-23T13:19:06.514Z,53.40
2019-02-23T13:22:15.201Z,52.40
2019-02-23T13:25:24.789Z,51.90
2019-02-23T13:28:21.336Z,52.60
2019-02-23T13:31:17.869Z,52.70
2019-02-23T13:34:38.932Z,52.90
2019-02-23T13:37:38.043Z,52.50
2019-02-23T13:40:34.850Z,52.20
2019-02-23T13:43:25.737Z,51.70
2019-02-23T13:46:35.137Z,52.20
2019-02-23T13:49:29.101Z,51.70
2019-02-23T13:52:26.207Z,52.00
2019-02-23T13:55:41.571Z,51.80
2019-02-23T13:58:22.367Z,52.80
2019-02-23T14:01:17.743Z,51.80
2019-02-23T14:03:58.449Z,51.70
2019-02-23T14:06:46.089Z,51.10
2019-02-23T14:09:40.088Z,51.00
2019-02-23T14:12:18.293Z,51.40
2019-02-23T14:15:12.067Z,51.60
2019-02-23T14:18:25.834Z,50.50
2019-02-23T14:21:16.618Z,50.50
2019-02-23T14:23:58.235Z,50.10
2019-02-23T14:27:29.174Z,49.10
2019-02-23T14:30:46.119Z,48.60
2019-02-23T14:34:06.909Z,49.00
2019-02-23T14:37:24.425Z,48.10
2019-02-23T14:40:45.953Z,46.90
2019-02-23T14:43:51.887Z,47.10
2019-02-23T14:46:57.235Z,48.60
2019-02-23T14:49:54.192Z,48.40
2019-02-23T14:52:47.799Z,48.20
2019-02-23T14:55:39.916Z,48.70
2019-02-23T14:58:31.450Z,48.90
2019-02-23T15:01:22.566Z,48.60
2019-02-23T15:04:28.629Z,50.70
2019-02-23T15:07:29.235Z,51.30
2019-02-23T15:10:41.273Z,51.90
2019-02-23T15:13:44.041Z,52.80
2019-02-23T15:16:53.356Z,53.60
2019-02-23T15:19:57.561Z,54.10
2019-02-23T15:23:05.546Z,54.30
2019-02-23T15:26:08.310Z,53.80
2019-02-23T15:29:07.048Z,54.30
2019-02-23T15:31:57.779Z,53.90
2019-02-23T15:34:48.851Z,53.90
2019-02-23T15:37:59.165Z,53.70
2019-02-23T15:40:58.463Z,54.20
2019-02-23T15:43:59.033Z,54.40
2019-02-23T15:47:17.950Z,55.00
2019-02-23T15:49:46.069Z,55.10
2019-02-23T15:52:14.269Z,55.40
2019-02-23T15:54:42.537Z,55.40
2019-02-23T15:57:10.661Z,55.60
2019-02-23T15:59:38.817Z,55.80
2019-02-23T16:02:07.038Z,56.10
2019-02-23T16:04:35.214Z,56.00
2019-02-23T16:07:03.584Z,56.10
2019-02-23T16:09:32.285Z,57.40
2019-02-23T16:12:00.891Z,60.30
2019-02-23T16:14:29.070Z,61.70
2019-02-23T16:16:59.478Z,62.90
2019-02-23T16:19:28.218Z,63.70
2019-02-23T16:21:56.763Z,64.30
2019-02-23T16:24:25.314Z,64.90
2019-02-23T16:26:53.407Z,65.00
2019-02-23T16:29:21.554Z,65.30
2019-02-23T16:31:49.873Z,65.90
2019-02-23T16:34:18.052Z,66.70
2019-02-23T16:36:46.249Z,67.30
2019-02-23T16:39:14.965Z,68.00
2019-02-23T16:41:43.569Z,68.60
2019-02-23T16:44:12.242Z,69.10
2019-02-23T16:46:40.347Z,69.50
2019-02-23T16:49:08.596Z,69.60
2019-02-23T16:51:36.855Z,69.70
2019-02-23T16:54:05.125Z,69.90
2019-02-23T16:56:33.434Z,69.30
2019-02-23T16:59:01.620Z,69.00
2019-02-23T17:01:30.231Z,68.80
2019-02-23T17:03:58.413Z,67.60
2019-02-23T17:06:26.507Z,67.20
2019-02-23T17:08:54.793Z,66.70
2019-02-23T17:11:23.338Z,65.90
2019-02-23T17:13:51.854Z,66.00
2019-02-23T17:16:20.878Z,66.10
2019-02-23T17:18:49.047Z,66.10
2019-02-23T17:21:17.130Z,66.80
2019-02-23T17:23:45.696Z,68.20
2019-02-23T17:26:14.018Z,68.40
2019-02-23T17:28:42.440Z,69.70
2019-02-23T17:31:10.526Z,70.70
2019-02-23T17:33:38.731Z,72.10
2019-02-23T17:36:06.818Z,72.80
2019-02-23T17:38:34.905Z,74.30
2019-02-23T17:41:03.460Z,74.70
2019-02-23T17:43:31.545Z,75.90
2019-02-23T17:46:00.022Z,77.60
2019-02-23T17:48:28.109Z,77.90
2019-02-23T17:50:56.551Z,78.20
2019-02-23T17:53:24.638Z,78.60
2019-02-23T17:55:52.781Z,79.30
2019-02-23T17:58:21.334Z,79.60
2019-02-23T18:00:50.181Z,79.90
2019-02-23T18:03:18.566Z,80.50
2019-02-23T18:05:46.803Z,81.00
2019-02-23T18:08:14.942Z,81.40
2019-02-23T18:10:43.617Z,82.10
2019-02-23T18:13:12.106Z,82.60
2019-02-23T18:15:40.224Z,83.30
2019-02-23T18:18:08.319Z,83.10
2019-02-23T18:20:36.865Z,83.60
2019-02-23T18:23:05.045Z,84.00
2019-02-23T18:25:33.178Z,84.30
2019-02-23T18:28:01.273Z,85.10
2019-02-23T18:30:31.607Z,85.40
2019-02-23T18:32:59.697Z,85.60
2019-02-23T18:35:27.859Z,85.80
2019-02-23T18:37:55.972Z,86.10
2019-02-23T18:40:24.146Z,86.60
2019-02-23T18:42:52.354Z,86.40
2019-02-23T18:45:21.002Z,87.50
2019-02-23T18:47:49.694Z,88.00
2019-02-23T18:50:17.957Z,88.60
2019-02-23T18:52:46.067Z,89.30
2019-02-23T18:55:14.342Z,89.60
2019-02-23T18:57:42.553Z,89.50
2019-02-23T19:00:11.661Z,89.90
2019-02-23T19:02:39.779Z,90.00
2019-02-23T19:05:09.855Z,90.10
2019-02-23T19:07:38.655Z,90.50
2019-02-23T19:10:08.696Z,90.90
2019-02-23T19:12:36.860Z,91.40
2019-02-23T19:15:06.255Z,91.50
2019-02-23T19:17:34.457Z,91.80
2019-02-23T19:20:02.782Z,92.00
2019-02-23T19:22:31.295Z,92.40
2019-02-23T19:24:59.506Z,92.80
2019-02-23T19:27:27.615Z,93.20
2019-02-23T19:29:55.764Z,93.80
2019-02-23T19:32:24.521Z,94.20
2019-02-23T19:34:52.609Z,94.60
2019-02-23T19:37:20.870Z,94.90
2019-02-23T19:39:48.971Z,95.50
2019-02-23T19:42:17.121Z,95.80
2019-02-23T19:44:45.232Z,96.70
2019-02-23T19:47:16.307Z,96.60
2019-02-23T19:49:44.422Z,96.70
2019-02-23T19:52:15.399Z,97.20
2019-02-23T19:54:43.548Z,97.30
2019-02-23T19:57:11.802Z,97.50
2019-02-23T19:59:39.906Z,97.70
2019-02-23T20:02:08.063Z,98.20
2019-02-23T20:04:36.606Z,98.90
2019-02-23T20:07:05.300Z,99.10
2019-02-23T20:09:33.444Z,99.40
2019-02-23T20:12:01.650Z,99.90
2019-02-23T20:14:30.567Z,99.90
2019-02-23T20:16:58.895Z,99.90
2019-02-23T20:19:27.161Z,99.90
2019-02-23T20:21:55.326Z,99.90
2019-02-23T20:24:23.891Z,99.90
2019-02-23T20:26:55.547Z,99.90
2019-02-23T20:29:22.049Z,99.90
2019-02-23T20:31:54.825Z,99.90
2019-02-23T20:34:23.781Z,99.90
2019-02-23T20:36:51.945Z,99.90
2019-02-23T20:39:20.530Z,99.90
2019-02-23T20:41:48.705Z,99.90
2019-02-23T20:44:16.931Z,99.90
2019-02-23T20:46:45.287Z,99.90
2019-02-23T20:49:14.006Z,99.90
2019-02-23T20:51:42.283Z,99.90
2019-02-23T20:54:10.409Z,99.90
2019-02-23T20:56:41.562Z,99.90
2019-02-23T20:59:09.774Z,99.90
2019-02-23T21:01:38.038Z,99.90
2019-02-23T21:04:06.180Z,99.90
2019-02-23T21:06:34.452Z,99.90
2019-02-23T21:09:02.797Z,99.90
2019-02-23T21:11:30.967Z,99.90
2019-02-23T21:14:00.319Z,99.90
2019-02-23T21:16:28.582Z,99.90
2019-02-23T21:18:56.685Z,99.90
2019-02-23T21:21:24.935Z,99.90
2019-02-23T21:23:57.504Z,99.90
2019-02-23T21:26:27.343Z,99.90
2019-02-23T21:28:55.571Z,99.90
2019-02-23T21:31:23.687Z,99.90
2019-02-23T21:33:51.851Z,99.90
2019-02-23T21:36:22.839Z,99.90
2019-02-23T21:38:51.498Z,99.90
2019-02-23T21:41:21.709Z,99.90
2019-02-23T21:43:55.034Z,99.90
2019-02-23T21:46:25.899Z,99.90
2019-02-23T21:48:54.055Z,99.90
2019-02-23T21:51:22.164Z,99.90
2019-02-23T21:53:50.390Z,99.90
2019-02-23T21:56:18.502Z,99.90
2019-02-23T21:58:46.727Z,99.90
2019-02-23T22:01:14.947Z,99.90
2019-02-23T22:03:43.115Z,99.90
2019-02-23T22:06:12.400Z,99.90
2019-02-23T22:08:45.246Z,99.90
2019-02-23T22:11:13.927Z,99.90
2019-02-23T22:13:43.713Z,99.90
2019-02-23T22:16:19.006Z,99.90
2019-02-23T22:18:52.376Z,99.90
2019-02-23T22:21:20.893Z,99.90
2019-02-23T22:24:01.889Z,99.90
2019-02-23T22:26:33.239Z,99.90
2019-02-23T22:29:01.466Z,99.90
2019-02-23T22:31:37.315Z,99.90
2019-02-23T22:34:06.252Z,99.90
2019-02-23T22:36:55.398Z,99.90
2019-02-23T22:39:23.591Z,99.90
2019-02-23T22:41:51.790Z,99.90
2019-02-23T22:44:20.506Z,99.90
2019-02-23T22:46:48.707Z,99.90
2019-02-23T22:49:18.894Z,99.90
2019-02-23T22:51:48.112Z,99.90
2019-02-23T22:54:16.767Z,99.90
2019-02-23T22:56:44.906Z,99.90
2019-02-23T22:59:13.078Z,99.90
2019-02-23T23:01:41.381Z,99.90
2019-02-23T23:04:10.283Z,99.90
2019-02-23T23:06:38.425Z,99.90
2019-02-23T23:09:16.148Z,99.90
2019-02-23T23:11:45.489Z,99.90
2019-02-23T23:14:14.034Z,99.90
2019-02-23T23:16:44.714Z,99.90
2019-02-23T23:19:13.282Z,99.90
2019-02-23T23:21:43.137Z,99.90
2019-02-23T23:24:11.704Z,99.90
2019-02-23T23:26:39.797Z,99.90
2019-02-23T23:29:07.955Z,99.90
2019-02-23T23:31:36.061Z,99.90
2019-02-23T23:34:04.343Z,99.90
2019-02-23T23:36:32.455Z,99.90
2019-02-23T23:39:00.615Z,99.90
2019-02-23T23:41:28.716Z,99.90
2019-02-23T23:43:56.905Z,99.90
2019-02-23T23:46:25.507Z,99.90
2019-02-23T23:48:53.662Z,99.90
2019-02-23T23:51:21.796Z,99.90
2019-02-23T23:53:49.962Z,99.90
2019-02-23T23:56:18.213Z,99.90
2019-02-23T23:58:46.511Z,99.90
